Avon Lake, Iowa
Current Conditions -  °F | °C
As of 1:54 PM on Monday 24 Nov 2014 (Local Time) from KDSM Reporting Station
Light Snow Light Snow  
Wind Chill: 13°   Ceiling: 2400
Heat Index: 28°   Visibility: 9mi
Dew Point: 17°   Wind: 25mph
Humidity: 63%   Direction: 310°NW
Pressure: 29.68"   Gusts: 32mph
Location:  41.4707°N, 93.4797°W
Report Text: KDSM 241954Z 31022G28KT 9SM -SN BKN024 OVC029 M02/M08 A2968 RMK AO2 PK WND 30032/1858 SLP059 P0000 T10221083
Loading
Personal Weather Stations






























Interactive Weather Map New forecast layout! Learn more

10-Day Weather Forecast

Advertisements
Track Severe Weather on mobile